Ripon, Wisconsin
Current Conditions -  °F | °C
As of 1:53 AM on Saturday 25 Oct 2014 (Local Time) from KOSH Reporting Station
Haze Haze  
Wind Chill: 56°   Ceiling: 900
Heat Index: 56°   Visibility: 6mi
Dew Point: 53°   Wind: 7mph
Humidity: 90%   Direction: 250°WSW
Pressure: 29.84"   Gusts: NA
Location:  43.85°N, 88.84°W
Report Text: KOSH 250653Z 25006KT 6SM BR OVC009 13/12 A2984 RMK AO2 SLP103 T01330117
Loading
Personal Weather Stations






























Interactive Weather Map
Tropical Storm Tracking
New forecast layout! Learn more

10-Day Weather Forecast

Advertisements
Track Severe Weather on mobile